Time;durP1;ratioP1;P1;durP2;ratioP2;P2;SDS_P1;SDS_P2;PMS_P1;PMS_P2;Temp;Humidity;BMP_temperature;BMP_pressure;BME280_temperature;BME280_humidity;BME280_pressure;Samples;Min_cycle;Max_cycle;Signal;HPM_P1;HPM_P2
2022/04/27 00:00:24;;;;;;;5.93;4.50;;;12.90;99.90;;;;;;5116678;28;20460;-71
2022/04/27 00:02:52;;;;;;;4.03;3.67;;;12.80;99.90;;;;;;5116849;28;20452;-72
2022/04/27 00:05:19;;;;;;;11.33;4.40;;;12.80;99.90;;;;;;5116514;28;20940;-72
2022/04/27 00:07:46;;;;;;;19.83;13.57;;;12.70;99.90;;;;;;5116640;28;20473;-72
2022/04/27 00:10:13;;;;;;;6.63;5.20;;;12.60;99.90;;;;;;5115670;28;20456;-72
2022/04/27 00:12:40;;;;;;;8.30;4.40;;;12.60;99.90;;;;;;5117002;28;20540;-73
2022/04/27 00:15:09;;;;;;;4.63;4.17;;;12.50;99.90;;;;;;5116390;28;20939;-72
2022/04/27 00:17:35;;;;;;;4.50;4.10;;;12.40;99.90;;;;;;5116921;28;20467;-72
2022/04/27 00:20:04;;;;;;;5.33;4.23;;;12.40;99.90;;;;;;5116597;28;20559;-72
2022/04/27 00:22:31;;;;;;;8.47;4.70;;;12.30;99.90;;;;;;5116558;28;20944;-73
2022/04/27 00:25:00;;;;;;;5.70;4.27;;;12.30;99.90;;;;;;5116624;28;20464;-72
2022/04/27 00:27:27;;;;;;;4.50;4.10;;;12.30;99.90;;;;;;5116508;28;20940;-72
2022/04/27 00:29:53;;;;;;;6.23;4.50;;;12.20;99.90;;;;;;5116116;28;20460;-71
2022/04/27 00:32:20;;;;;;;5.03;4.53;;;12.20;99.90;;;;;;5116096;28;20464;-71
2022/04/27 00:34:47;;;;;;;5.60;4.13;;;12.10;99.90;;;;;;5116092;28;20471;-72
2022/04/27 00:37:15;;;;;;;4.97;4.47;;;12.10;99.90;;;;;;5115945;28;20460;-71
2022/04/27 00:39:41;;;;;;;8.23;5.00;;;12.00;99.90;;;;;;5115914;28;20525;-72
2022/04/27 00:42:16;;;;;;;4.70;4.07;;;12.00;99.90;;;;;;5115822;28;20854;-72
2022/04/27 00:44:44;;;;;;;6.37;4.13;;;11.90;99.90;;;;;;5115435;28;20924;-72
2022/04/27 00:47:11;;;;;;;8.63;4.97;;;11.90;99.90;;;;;;5115187;28;20477;-73
2022/04/27 00:49:41;;;;;;;5.43;4.37;;;11.90;99.90;;;;;;5116239;28;20488;-72
2022/04/27 00:52:12;;;;;;;4.90;4.40;;;11.80;99.90;;;;;;5115681;28;20437;-72
2022/04/27 00:54:40;;;;;;;6.23;4.50;;;11.70;99.90;;;;;;5115749;28;20448;-72
2022/04/27 00:57:08;;;;;;;5.90;4.63;;;11.70;99.90;;;;;;5115013;28;20495;-72
2022/04/27 00:59:35;;;;;;;6.70;5.00;;;11.60;99.90;;;;;;5115248;28;20981;-72
2022/04/27 01:02:02;;;;;;;7.10;5.60;;;11.50;99.90;;;;;;5115496;28;20495;-72
2022/04/27 01:04:31;;;;;;;8.03;4.60;;;11.50;99.90;;;;;;5115172;28;20897;-72
2022/04/27 01:06:57;;;;;;;6.43;4.87;;;11.40;99.90;;;;;;5115313;28;20511;-72
2022/04/27 01:09:25;;;;;;;9.33;4.57;;;11.30;99.90;;;;;;5115595;28;20486;-72
2022/04/27 01:11:54;;;;;;;5.93;4.93;;;11.20;99.90;;;;;;5116069;28;20517;-72
2022/04/27 01:14:22;;;;;;;5.10;4.60;;;11.20;99.90;;;;;;5116062;28;20517;-71
2022/04/27 01:16:52;;;;;;;4.93;4.50;;;11.10;99.90;;;;;;5115309;28;20525;-71
2022/04/27 01:19:19;;;;;;;5.00;4.50;;;11.00;99.90;;;;;;5115104;28;20547;-73
2022/04/27 01:21:49;;;;;;;7.37;4.97;;;11.00;99.90;;;;;;5114988;28;20471;-72
2022/04/27 01:24:18;;;;;;;9.63;4.70;;;10.90;99.90;;;;;;5115165;28;20547;-71
2022/04/27 01:26:46;;;;;;;5.80;5.30;;;10.90;99.90;;;;;;5114908;28;20574;-72
2022/04/27 01:29:15;;;;;;;7.10;5.50;;;10.80;99.90;;;;;;5115123;28;20466;-71
2022/04/27 01:31:42;;;;;;;7.37;4.90;;;10.70;99.90;;;;;;5115100;28;20463;-73
2022/04/27 01:34:08;;;;;;;6.10;5.50;;;10.70;99.90;;;;;;5115223;28;20468;-72
2022/04/27 01:36:35;;;;;;;6.07;5.47;;;10.70;99.90;;;;;;5115048;28;20463;-72
2022/04/27 01:39:04;;;;;;;5.93;5.33;;;10.60;99.90;;;;;;5115025;28;20467;-72
2022/04/27 01:41:30;;;;;;;10.43;5.77;;;10.60;99.90;;;;;;5114847;28;20808;-72
2022/04/27 01:43:57;;;;;;;6.60;5.27;;;10.60;99.90;;;;;;5114690;28;20464;-72
2022/04/27 01:46:24;;;;;;;6.90;5.60;;;10.50;99.90;;;;;;5114743;28;20448;-71
2022/04/27 01:48:51;;;;;;;6.50;5.83;;;10.50;99.90;;;;;;5114692;28;20459;-71
2022/04/27 01:51:18;;;;;;;7.47;5.30;;;10.50;99.90;;;;;;5115049;28;20457;-73
2022/04/27 01:56:31;;;;;;;6.20;5.50;;;10.50;99.90;;;;;;5114675;28;20629;-72
2022/04/27 01:58:58;;;;;;;6.87;6.20;;;10.40;99.90;;;;;;5114446;28;20913;-72
2022/04/27 02:01:25;;;;;;;7.70;5.10;;;10.30;99.90;;;;;;5114863;28;20466;-71
2022/04/27 02:03:52;;;;;;;7.70;6.50;;;10.30;99.90;;;;;;5114893;28;20452;-72
2022/04/27 02:06:19;;;;;;;6.60;5.43;;;10.20;99.90;;;;;;5114601;28;20907;-72
2022/04/27 02:08:46;;;;;;;9.80;6.27;;;10.20;99.90;;;;;;5114729;28;20480;-72
2022/04/27 02:11:13;;;;;;;6.23;5.53;;;10.20;99.90;;;;;;5114471;28;20928;-72
2022/04/27 02:13:41;;;;;;;7.00;6.20;;;10.10;99.90;;;;;;5114771;28;20490;-71
2022/04/27 02:16:08;;;;;;;8.40;6.53;;;10.00;99.90;;;;;;5114622;28;20456;-72
2022/04/27 02:18:35;;;;;;;7.40;6.67;;;10.00;99.90;;;;;;5114669;28;20452;-71
2022/04/27 02:21:02;;;;;;;6.60;5.90;;;10.00;99.90;;;;;;5114574;28;20464;-72
2022/04/27 02:23:29;;;;;;;10.10;6.37;;;9.90;99.90;;;;;;5114676;28;20993;-73
2022/04/27 02:26:00;;;;;;;8.77;7.43;;;9.90;99.90;;;;;;5114498;28;20467;-71
2022/04/27 02:28:26;;;;;;;9.80;6.43;;;9.80;99.90;;;;;;5114623;28;20820;-72
2022/04/27 02:30:54;;;;;;;8.70;6.70;;;9.80;99.90;;;;;;5115035;28;20453;-72
2022/04/27 02:33:21;;;;;;;6.57;5.93;;;9.70;99.90;;;;;;5117204;28;20820;-73
2022/04/27 02:35:48;;;;;;;7.97;7.20;;;9.70;99.90;;;;;;5118385;28;20819;-72
2022/04/27 02:38:14;;;;;;;7.07;6.20;;;9.70;99.90;;;;;;5118424;28;20456;-71
2022/04/27 02:40:41;;;;;;;7.87;7.07;;;9.70;99.90;;;;;;5118201;28;20452;-72
2022/04/27 02:43:08;;;;;;;7.63;6.83;;;9.60;99.90;;;;;;5117933;28;20452;-72
2022/04/27 02:45:35;;;;;;;14.00;6.63;;;9.60;99.90;;;;;;5118146;28;20513;-72
2022/04/27 02:48:03;;;;;;;9.30;6.90;;;9.60;99.90;;;;;;5117995;28;20473;-72
2022/04/27 02:53:14;;;;;;;10.73;7.83;;;9.60;99.90;;;;;;5118032;28;20482;-72
2022/04/27 02:55:40;;;;;;;12.60;8.00;;;9.60;99.90;;;;;;5117548;28;20566;-72
2022/04/27 02:58:07;;;;;;;9.50;7.20;;;9.60;99.90;;;;;;5117742;28;20934;-72
2022/04/27 03:00:34;;;;;;;10.60;7.43;;;9.60;99.90;;;;;;5118245;28;20790;-72
2022/04/27 03:03:02;;;;;;;10.20;7.30;;;9.60;99.90;;;;;;5117452;28;20452;-72
2022/04/27 03:05:30;;;;;;;11.60;8.10;;;9.60;99.90;;;;;;5117887;28;20456;-73
2022/04/27 03:07:56;;;;;;;9.70;7.20;;;9.50;99.90;;;;;;5117822;28;20490;-72
2022/04/27 03:10:23;;;;;;;9.30;6.87;;;9.60;99.90;;;;;;5117570;28;20457;-71
2022/04/27 03:12:49;;;;;;;13.73;7.07;;;9.60;99.90;;;;;;5117794;28;20463;-73
2022/04/27 03:15:17;;;;;;;9.57;7.50;;;9.60;99.90;;;;;;5117129;28;20468;-72
2022/04/27 03:17:44;;;;;;;9.80;6.63;;;9.50;99.90;;;;;;5117611;28;20530;-72
2022/04/27 03:20:12;;;;;;;8.27;7.40;;;9.60;99.90;;;;;;5117509;28;20559;-72
2022/04/27 03:22:39;;;;;;;8.17;6.97;;;9.60;99.90;;;;;;5117564;28;20503;-72
2022/04/27 03:25:07;;;;;;;10.57;7.00;;;9.50;99.90;;;;;;5117468;28;21010;-72
2022/04/27 03:27:33;;;;;;;8.97;7.83;;;9.50;99.90;;;;;;5117012;28;20491;-73
2022/04/27 03:30:00;;;;;;;9.90;7.63;;;9.50;99.90;;;;;;5117037;28;20924;-72
2022/04/27 03:32:27;;;;;;;7.23;6.50;;;9.50;99.90;;;;;;5117182;28;20457;-73
2022/04/27 03:34:53;;;;;;;11.27;7.97;;;9.50;99.90;;;;;;5117010;28;20456;-73
2022/04/27 03:37:21;;;;;;;12.27;7.80;;;9.40;99.90;;;;;;5117109;28;20448;-71
2022/04/27 03:39:48;;;;;;;8.40;7.17;;;9.40;99.90;;;;;;5117037;28;20456;-71
2022/04/27 03:42:15;;;;;;;11.03;7.60;;;9.40;99.90;;;;;;5116792;28;20469;-71
2022/04/27 03:44:41;;;;;;;9.83;7.30;;;9.40;99.90;;;;;;5115745;28;20765;-72
2022/04/27 03:47:08;;;;;;;12.57;7.83;;;9.40;99.90;;;;;;5116509;28;20782;-72
2022/04/27 03:49:35;;;;;;;10.70;7.30;;;9.40;99.90;;;;;;5116996;28;20463;-72
2022/04/27 03:52:01;;;;;;;8.37;7.20;;;9.40;99.90;;;;;;5117161;28;20457;-72
2022/04/27 03:54:29;;;;;;;11.40;7.40;;;9.40;99.90;;;;;;5116920;28;20550;-72
2022/04/27 03:56:57;;;;;;;9.27;7.03;;;9.30;99.90;;;;;;5116228;28;20484;-72
2022/04/27 03:59:24;;;;;;;9.53;7.00;;;9.30;99.90;;;;;;5116748;28;20465;-72
2022/04/27 04:01:51;;;;;;;7.70;6.97;;;9.30;99.90;;;;;;5116627;28;20468;-73
2022/04/27 04:04:17;;;;;;;10.07;7.93;;;9.30;99.90;;;;;;5116447;28;20468;-71
2022/04/27 04:06:44;;;;;;;8.43;6.40;;;9.30;99.90;;;;;;5116739;28;20456;-73
2022/04/27 04:09:11;;;;;;;12.17;7.30;;;9.30;99.90;;;;;;5116460;28;20469;-73
2022/04/27 04:11:39;;;;;;;8.20;7.20;;;9.30;99.90;;;;;;5117085;28;20456;-73
2022/04/27 04:14:06;;;;;;;8.00;7.20;;;9.30;99.90;;;;;;5116390;28;20949;-72
2022/04/27 04:16:32;;;;;;;10.73;7.57;;;9.30;99.90;;;;;;5116204;28;20464;-73
2022/04/27 04:18:59;;;;;;;9.83;7.50;;;9.30;99.90;;;;;;5116286;28;20461;-72
2022/04/27 04:21:26;;;;;;;9.83;7.80;;;9.30;99.90;;;;;;5116056;28;20461;-72
2022/04/27 04:23:52;;;;;;;9.93;7.90;;;9.30;99.90;;;;;;5116213;28;20449;-73
2022/04/27 04:29:05;;;;;;;9.30;8.27;;;9.30;99.90;;;;;;5115967;28;20982;-73
2022/04/27 04:31:32;;;;;;;10.83;7.83;;;9.40;99.90;;;;;;5115578;28;20949;-71
2022/04/27 04:33:59;;;;;;;10.47;7.53;;;9.40;99.90;;;;;;5115985;28;20452;-73
2022/04/27 04:36:25;;;;;;;9.00;7.70;;;9.40;99.90;;;;;;5115820;28;20453;-72
2022/04/27 04:38:52;;;;;;;11.93;7.40;;;9.40;99.90;;;;;;5115806;28;20463;-72
2022/04/27 04:41:19;;;;;;;7.87;6.60;;;9.40;99.90;;;;;;5115958;28;20456;-72
2022/04/27 04:43:46;;;;;;;9.13;7.60;;;9.50;99.90;;;;;;5115764;28;20559;-72
2022/04/27 04:46:14;;;;;;;12.73;8.50;;;9.50;99.90;;;;;;5115794;28;20452;-72
2022/04/27 04:48:40;;;;;;;10.67;8.27;;;9.50;99.90;;;;;;5115810;28;20483;-72
2022/04/27 04:51:07;;;;;;;8.53;7.10;;;9.60;99.90;;;;;;5115576;28;20963;-72
2022/04/27 04:53:34;;;;;;;10.77;8.03;;;9.60;99.90;;;;;;5115857;28;20513;-73
2022/04/27 04:56:01;;;;;;;72.53;44.70;;;9.60;99.90;;;;;;5115117;28;20503;-73
2022/04/27 04:58:27;;;;;;;29.97;22.10;;;9.70;99.90;;;;;;5115940;28;20839;-72
2022/04/27 05:00:54;;;;;;;10.63;8.43;;;9.70;99.90;;;;;;5115297;28;20465;-72
2022/04/27 05:03:22;;;;;;;25.37;18.90;;;9.80;99.90;;;;;;5115787;28;20473;-72
2022/04/27 05:05:49;;;;;;;19.60;16.30;;;9.80;99.90;;;;;;5115584;28;20456;-72
2022/04/27 05:08:15;;;;;;;18.53;13.00;;;9.90;99.90;;;;;;5115354;28;20484;-73
2022/04/27 05:10:42;;;;;;;15.80;11.03;;;10.00;99.90;;;;;;5115218;28;20471;-72
2022/04/27 05:13:09;;;;;;;25.30;15.90;;;10.10;99.90;;;;;;5115638;28;20467;-73
2022/04/27 05:15:36;;;;;;;18.27;13.40;;;10.10;99.90;;;;;;5115115;28;20488;-73
2022/04/27 05:18:03;;;;;;;17.47;10.67;;;10.20;99.90;;;;;;5116037;28;20448;-73
2022/04/27 05:20:31;;;;;;;13.13;10.20;;;10.20;99.90;;;;;;5115569;28;20456;-73
2022/04/27 05:22:58;;;;;;;10.77;8.10;;;10.30;99.90;;;;;;5115661;28;20768;-74
2022/04/27 05:25:25;;;;;;;13.13;9.63;;;10.30;99.90;;;;;;5114878;28;20456;-72
2022/04/27 05:27:51;;;;;;;13.37;9.93;;;10.40;99.90;;;;;;5114809;28;20476;-72
2022/04/27 05:33:03;;;;;;;10.80;8.67;;;10.50;99.90;;;;;;5115044;28;20424;-73
2022/04/27 05:35:31;;;;;;;14.50;9.37;;;10.50;99.90;;;;;;5114761;28;20541;-72
2022/04/27 05:37:58;;;;;;;11.27;9.03;;;10.40;99.90;;;;;;5115781;28;20538;-74
2022/04/27 05:40:27;;;;;;;25.20;16.67;;;10.50;99.90;;;;;;5115018;28;20467;-73
2022/04/27 05:42:54;;;;;;;16.37;9.57;;;10.60;99.90;;;;;;5114235;28;20453;-72
2022/04/27 05:45:20;;;;;;;13.63;8.77;;;10.60;99.90;;;;;;5115081;28;20457;-71
2022/04/27 05:47:47;;;;;;;9.97;7.70;;;10.70;99.90;;;;;;5114822;28;20783;-71
2022/04/27 05:50:14;;;;;;;9.77;8.10;;;10.70;99.90;;;;;;5114907;28;20460;-71
2022/04/27 05:52:54;;;;;;;11.03;8.80;;;10.80;99.90;;;;;;5114662;28;20462;-72
2022/04/27 05:55:21;;;;;;;10.10;8.20;;;10.80;99.90;;;;;;5114468;28;20444;-72
2022/04/27 05:57:48;;;;;;;10.63;7.90;;;10.90;99.90;;;;;;5114715;28;20459;-72
2022/04/27 06:00:15;;;;;;;12.97;8.80;;;11.00;99.90;;;;;;5114559;28;20951;-72
2022/04/27 06:02:43;;;;;;;9.97;8.07;;;11.10;99.90;;;;;;5114698;28;20800;-72
2022/04/27 06:05:10;;;;;;;14.30;8.50;;;11.10;99.90;;;;;;5114204;28;20452;-72
2022/04/27 06:07:37;;;;;;;17.17;8.13;;;11.10;99.90;;;;;;5115748;28;20467;-72
2022/04/27 06:10:07;;;;;;;11.10;8.67;;;11.20;99.90;;;;;;5118537;28;20460;-73
2022/04/27 06:12:36;;;;;;;10.20;7.97;;;11.30;99.90;;;;;;5118434;28;20452;-72
2022/04/27 06:15:04;;;;;;;16.77;9.20;;;11.30;99.90;;;;;;5118011;28;20940;-72
2022/04/27 06:17:31;;;;;;;11.40;8.90;;;11.40;99.90;;;;;;5118269;28;20452;-71
2022/04/27 06:19:58;;;;;;;15.87;9.03;;;11.40;99.90;;;;;;5118034;28;20476;-71
2022/04/27 06:22:25;;;;;;;10.43;9.40;;;11.50;99.90;;;;;;5118410;28;20463;-71
2022/04/27 06:24:51;;;;;;;14.00;8.10;;;11.60;99.90;;;;;;5117948;28;20463;-72
2022/04/27 06:27:19;;;;;;;14.80;8.70;;;11.60;99.90;;;;;;5118199;28;20467;-72
2022/04/27 06:29:46;;;;;;;11.57;8.60;;;11.60;99.90;;;;;;5118150;28;20570;-72
2022/04/27 06:32:13;;;;;;;8.77;7.43;;;11.60;99.90;;;;;;5118708;28;20904;-71
2022/04/27 06:34:39;;;;;;;9.50;8.00;;;11.60;99.90;;;;;;5118148;28;20456;-72
2022/04/27 06:37:06;;;;;;;10.60;8.50;;;11.70;99.90;;;;;;5117827;28;20460;-72
2022/04/27 06:39:33;;;;;;;12.90;9.00;;;11.80;99.90;;;;;;5118061;28;20767;-72
2022/04/27 06:41:59;;;;;;;10.63;8.27;;;11.80;99.90;;;;;;5117433;28;20970;-72
2022/04/27 06:44:27;;;;;;;11.40;7.60;;;11.80;99.90;;;;;;5117599;28;20452;-72
2022/04/27 06:46:54;;;;;;;11.43;8.17;;;11.80;99.90;;;;;;5117690;28;20783;-72
2022/04/27 06:49:21;;;;;;;10.17;8.10;;;11.90;99.90;;;;;;5117859;28;20467;-72
2022/04/27 06:51:47;;;;;;;12.67;8.00;;;12.00;99.90;;;;;;5117440;28;20463;-71
2022/04/27 06:54:14;;;;;;;11.40;7.50;;;12.00;99.90;;;;;;5117464;28;20456;-74
2022/04/27 06:56:41;;;;;;;28.97;9.63;;;12.10;99.90;;;;;;5117312;28;20484;-73
2022/04/27 06:59:07;;;;;;;27.20;11.17;;;12.10;99.90;;;;;;5117631;28;20492;-73
2022/04/27 07:01:35;;;;;;;12.90;7.87;;;12.20;99.90;;;;;;5117720;28;20516;-73
2022/04/27 07:04:07;;;;;;;15.30;7.90;;;12.20;99.90;;;;;;5117656;28;20456;-73
2022/04/27 07:06:35;;;;;;;8.30;6.67;;;12.20;99.90;;;;;;5118003;28;20444;-73
2022/04/27 07:09:02;;;;;;;10.53;8.50;;;12.30;99.90;;;;;;5116779;28;20476;-72
2022/04/27 07:11:28;;;;;;;10.80;7.97;;;12.30;99.90;;;;;;5117185;28;20456;-72
2022/04/27 07:13:55;;;;;;;8.33;6.83;;;12.30;99.90;;;;;;5117551;28;20453;-72
2022/04/27 07:16:22;;;;;;;15.40;9.80;;;12.40;99.90;;;;;;5117987;28;20783;-73
2022/04/27 07:18:53;;;;;;;13.17;9.20;;;12.40;99.90;;;;;;5118529;28;20543;-73
2022/04/27 07:21:20;;;;;;;30.57;24.47;;;12.50;99.90;;;;;;5117662;28;20445;-73
2022/04/27 07:23:46;;;;;;;8.97;7.90;;;12.60;99.90;;;;;;5117068;28;20928;-72
2022/04/27 07:26:13;;;;;;;8.63;7.27;;;12.60;99.90;;;;;;5117412;28;20464;-72
2022/04/27 07:28:41;;;;;;;9.40;6.97;;;12.60;99.90;;;;;;5117312;28;20487;-72
2022/04/27 07:31:08;;;;;;;10.20;7.00;;;12.70;99.90;;;;;;5117377;28;20775;-72
2022/04/27 07:33:35;;;;;;;10.67;6.90;;;12.70;99.90;;;;;;5117355;28;20457;-71
2022/04/27 07:36:05;;;;;;;8.20;6.90;;;12.80;99.90;;;;;;5116930;28;20452;-73
2022/04/27 07:38:32;;;;;;;12.60;9.80;;;12.90;99.90;;;;;;5117116;28;20502;-73
2022/04/27 07:40:59;;;;;;;7.17;6.30;;;13.00;99.90;;;;;;5116907;28;20509;-72
2022/04/27 07:43:25;;;;;;;7.80;7.00;;;13.00;99.90;;;;;;5116641;28;20452;-72
2022/04/27 07:45:52;;;;;;;6.90;5.23;;;13.10;99.90;;;;;;5116447;28;20448;-72
2022/04/27 07:48:18;;;;;;;7.07;5.57;;;13.20;99.90;;;;;;5116214;28;20457;-72
2022/04/27 07:50:45;;;;;;;7.00;5.80;;;13.30;99.90;;;;;;5117255;28;20456;-73
2022/04/27 07:53:13;;;;;;;9.73;5.70;;;13.30;99.90;;;;;;5116812;28;20513;-72
2022/04/27 07:55:40;;;;;;;7.90;5.50;;;13.40;99.90;;;;;;5116327;28;20484;-73
2022/04/27 07:58:06;;;;;;;17.10;12.20;;;13.40;99.90;;;;;;5116789;28;20437;-72
2022/04/27 08:00:33;;;;;;;5.87;5.20;;;13.40;99.90;;;;;;5116388;28;20456;-73
2022/04/27 08:03:00;;;;;;;8.60;6.70;;;13.50;99.90;;;;;;5116389;28;20509;-73
2022/04/27 08:05:27;;;;;;;6.10;4.70;;;13.60;99.90;;;;;;5116933;28;20765;-73
2022/04/27 08:07:54;;;;;;;7.87;6.00;;;13.60;99.90;;;;;;5119129;28;20460;-73
2022/04/27 08:10:22;;;;;;;5.00;4.50;;;13.70;99.90;;;;;;5116391;28;20487;-73
2022/04/27 08:12:49;;;;;;;7.13;3.77;;;13.70;99.90;;;;;;5117139;28;20525;-72
2022/04/27 08:15:18;;;;;;;3.77;3.47;;;13.80;99.90;;;;;;5117937;28;20464;-73
2022/04/27 08:17:55;;;;;;;4.90;4.30;;;13.80;99.90;;;;;;5116634;28;20456;-73
2022/04/27 08:23:22;;;;;;;3.93;2.70;;;13.80;99.90;;;;;;5053654;28;20442;-73
2022/04/27 08:25:51;;;;;;;3.67;2.60;;;13.90;99.90;;;;;;5054041;28;20451;-73
2022/04/27 08:28:19;;;;;;;3.53;2.40;;;13.90;99.90;;;;;;5081686;28;20452;-73
2022/04/27 08:30:47;;;;;;;6.77;3.93;;;14.00;99.40;;;;;;5115828;28;20490;-73
2022/04/27 08:33:15;;;;;;;6.07;4.03;;;14.00;99.50;;;;;;5115948;28;20468;-72
2022/04/27 08:35:42;;;;;;;4.43;3.23;;;14.10;99.90;;;;;;5115800;28;20923;-72
2022/04/27 08:38:10;;;;;;;4.90;2.80;;;14.10;98.90;;;;;;5115964;28;20494;-73
2022/04/27 08:40:39;;;;;;;1.90;1.70;;;14.20;97.30;;;;;;5115949;28;20543;-72
2022/04/27 08:43:09;;;;;;;3.10;2.80;;;14.30;93.60;;;;;;5115793;28;20456;-73
2022/04/27 08:45:36;;;;;;;4.70;2.90;;;14.40;94.60;;;;;;5115898;28;20509;-73
2022/04/27 08:48:04;;;;;;;3.90;3.30;;;14.50;96.10;;;;;;5115780;28;20463;-73
2022/04/27 08:50:31;;;;;;;3.83;3.53;;;14.50;97.30;;;;;;5115636;28;20480;-74
2022/04/27 08:52:57;;;;;;;4.17;3.60;;;14.60;97.90;;;;;;5115914;28;20642;-73
2022/04/27 08:55:27;;;;;;;4.97;3.83;;;14.70;98.20;;;;;;5115814;28;20463;-72
2022/04/27 08:57:54;;;;;;;6.90;3.27;;;14.90;97.60;;;;;;5114710;28;20456;-73
2022/04/27 09:00:23;;;;;;;4.23;3.80;;;15.00;97.40;;;;;;5114458;28;20912;-73
2022/04/27 09:02:54;;;;;;;7.23;3.20;;;15.00;94.80;;;;;;5114621;28;20452;-74
2022/04/27 09:05:22;;;;;;;4.50;3.80;;;15.00;94.90;;;;;;5115009;28;20456;-75
2022/04/27 09:07:50;;;;;;;4.40;4.00;;;15.10;94.30;;;;;;5113458;28;20456;-72
2022/04/27 09:10:19;;;;;;;4.70;3.37;;;15.10;94.80;;;;;;5114092;28;20504;-73
2022/04/27 09:12:48;;;;;;;5.60;3.30;;;15.20;93.90;;;;;;5114621;28;20509;-73
2022/04/27 09:15:16;;;;;;;3.87;3.47;;;15.20;94.20;;;;;;5114650;28;20452;-73
2022/04/27 09:20:52;;;;;;;4.90;3.13;;;15.20;92.10;;;;;;5080449;28;20471;-71
2022/04/27 09:23:24;;;;;;;4.20;3.03;;;15.20;91.80;;;;;;5115017;28;20436;-73
2022/04/27 09:25:53;;;;;;;5.73;3.20;;;15.20;87.90;;;;;;5115126;28;20509;-72
2022/04/27 09:28:23;;;;;;;3.30;2.60;;;15.20;88.60;;;;;;5115149;28;20557;-72
2022/04/27 09:30:51;;;;;;;4.53;2.93;;;15.30;88.30;;;;;;5115142;28;20512;-72
2022/04/27 09:33:32;;;;;;;4.40;3.13;;;15.30;84.10;;;;;;5114277;28;20529;-72
2022/04/27 09:36:00;;;;;;;4.23;2.77;;;15.30;83.90;;;;;;5114182;28;20456;-72
2022/04/27 09:38:27;;;;;;;4.10;3.00;;;15.40;83.60;;;;;;5114616;28;20460;-73
2022/04/27 09:40:56;;;;;;;2.40;2.20;;;15.40;75.30;;;;;;5114043;28;20475;-73
2022/04/27 09:43:42;;;;;;;5.30;2.60;;;15.50;74.90;;;;;;5113649;28;20452;-73
2022/04/27 09:46:17;;;;;;;4.37;2.90;;;15.50;78.70;;;;;;5115099;28;20458;-74
2022/04/27 09:48:49;;;;;;;3.40;2.80;;;15.50;79.70;;;;;;5114690;28;20544;-74
2022/04/27 09:51:16;;;;;;;6.40;2.70;;;15.60;80.30;;;;;;5114746;28;20501;-74
2022/04/27 09:53:44;;;;;;;2.80;2.40;;;15.70;77.70;;;;;;5114490;28;20463;-72
2022/04/27 09:56:12;;;;;;;13.57;10.50;;;15.80;77.40;;;;;;5102717;28;100682;-73
2022/04/27 09:58:43;;;;;;;10.03;3.97;;;15.90;76.40;;;;;;5107988;28;20519;-73
2022/04/27 10:01:13;;;;;;;3.07;2.50;;;16.10;77.40;;;;;;5114991;28;20564;-73
2022/04/27 10:03:42;;;;;;;2.40;2.20;;;16.20;72.40;;;;;;5114689;28;20432;-73
2022/04/27 10:06:10;;;;;;;2.80;2.50;;;16.30;72.80;;;;;;5114807;28;20456;-73
2022/04/27 10:08:40;;;;;;;3.20;2.17;;;16.40;70.00;;;;;;5114971;28;20504;-73
2022/04/27 10:11:09;;;;;;;5.03;2.13;;;16.40;68.50;;;;;;5114696;28;20571;-73
2022/04/27 10:13:37;;;;;;;6.23;2.90;;;16.50;66.90;;;;;;5114720;28;20777;-72
2022/04/27 10:16:05;;;;;;;2.67;2.47;;;16.50;64.10;;;;;;5114224;28;20456;-73
2022/04/27 10:18:32;;;;;;;4.37;2.83;;;16.50;64.80;;;;;;5114062;28;20909;-73
2022/04/27 10:21:00;;;;;;;4.17;2.30;;;16.50;65.00;;;;;;5114153;28;20543;-73
2022/04/27 10:23:31;;;;;;;2.90;2.37;;;16.50;65.50;;;;;;5113747;28;20921;-72
2022/04/27 10:26:07;;;;;;;2.97;2.30;;;16.60;63.40;;;;;;5116408;28;20444;-73
2022/04/27 10:28:37;;;;;;;51.03;37.10;;;16.80;63.10;;;;;;5116275;28;20425;-73
2022/04/27 10:31:07;;;;;;;4.40;3.30;;;17.00;62.10;;;;;;5115880;28;20491;-72
2022/04/27 10:33:41;;;;;;;2.60;2.40;;;17.30;60.30;;;;;;5114007;28;20456;-72
2022/04/27 10:36:24;;;;;;;4.07;3.43;;;17.40;60.60;;;;;;5114196;28;20907;-72
2022/04/27 10:39:19;;;;;;;3.50;2.47;;;17.40;59.50;;;;;;5113990;28;20573;-73
2022/04/27 10:41:53;;;;;;;2.07;1.80;;;17.40;58.70;;;;;;5114453;28;20456;-73
2022/04/27 10:44:20;;;;;;;2.67;2.30;;;17.50;58.40;;;;;;5114215;28;20913;-73
2022/04/27 10:46:47;;;;;;;5.70;2.90;;;17.40;57.40;;;;;;5114108;28;20460;-72
2022/04/27 10:49:24;;;;;;;4.03;3.20;;;17.40;57.40;;;;;;5113735;28;20449;-73
2022/04/27 10:52:01;;;;;;;3.97;3.50;;;17.40;58.80;;;;;;5114085;28;20773;-73
2022/04/27 10:54:31;;;;;;;3.20;2.30;;;17.50;58.50;;;;;;5116297;28;20460;-73
2022/04/27 10:57:41;;;;;;;4.67;2.53;;;17.60;57.40;;;;;;5118995;28;20476;-73
2022/04/27 11:00:09;;;;;;;2.97;2.63;;;17.70;57.40;;;;;;5121446;28;20447;-73
2022/04/27 11:02:37;;;;;;;8.13;2.43;;;17.70;57.30;;;;;;5118374;28;20467;-72
2022/04/27 11:05:06;;;;;;;2.90;2.10;;;17.70;56.70;;;;;;5118023;28;20452;-72
2022/04/27 11:07:40;;;;;;;3.80;3.40;;;17.80;56.60;;;;;;5118882;28;20456;-72
2022/04/27 11:10:14;;;;;;;4.47;2.50;;;17.80;56.40;;;;;;5117195;28;20510;-72
2022/04/27 11:12:43;;;;;;;2.30;2.10;;;18.00;55.70;;;;;;5117531;28;20448;-73
2022/04/27 11:15:12;;;;;;;3.10;2.80;;;18.10;52.70;;;;;;5118644;28;20460;-73
2022/04/27 11:17:40;;;;;;;2.40;2.20;;;18.20;51.60;;;;;;5117789;28;20463;-72
2022/04/27 11:20:22;;;;;;;3.27;2.17;;;18.60;52.20;;;;;;5117140;28;20463;-72
2022/04/27 11:22:48;;;;;;;1.80;1.60;;;19.10;51.00;;;;;;5117275;28;20536;-73
2022/04/27 11:25:23;;;;;;;2.57;1.97;;;19.80;50.20;;;;;;5116883;28;20456;-73
2022/04/27 11:27:50;;;;;;;5.50;2.00;;;20.70;49.00;;;;;;5117000;28;20882;-72
2022/04/27 11:30:18;;;;;;;5.10;2.10;;;21.40;46.50;;;;;;5116973;28;20492;-73
2022/04/27 11:32:47;;;;;;;3.03;2.10;;;21.80;44.60;;;;;;5116926;28;20467;-73
2022/04/27 11:35:14;;;;;;;2.30;2.10;;;21.50;43.90;;;;;;5116836;28;20457;-72
2022/04/27 11:37:40;;;;;;;5.00;3.00;;;21.30;43.40;;;;;;5119656;28;20456;-72
2022/04/27 11:40:15;;;;;;;6.67;1.80;;;21.40;42.80;;;;;;5116927;28;20460;-72
2022/04/27 11:42:48;;;;;;;2.40;2.20;;;21.70;40.70;;;;;;5117761;28;20809;-73
2022/04/27 11:45:19;;;;;;;2.40;1.83;;;22.20;40.40;;;;;;5117409;28;20460;-73
2022/04/27 11:47:56;;;;;;;2.90;2.60;;;22.90;40.70;;;;;;5117070;28;20460;-73
2022/04/27 11:50:22;;;;;;;5.40;2.00;;;23.70;39.20;;;;;;5117267;28;20554;-73
2022/04/27 11:52:58;;;;;;;4.30;2.40;;;24.40;38.80;;;;;;5116884;28;20504;-72
2022/04/27 11:55:24;;;;;;;2.60;2.40;;;24.60;36.90;;;;;;5115614;28;20440;-73
2022/04/27 11:57:53;;;;;;;3.53;3.20;;;24.00;37.10;;;;;;5116141;28;20827;-72
2022/04/27 12:00:21;;;;;;;8.30;6.70;;;23.10;37.20;;;;;;5116094;28;20453;-72
2022/04/27 12:02:48;;;;;;;3.67;2.60;;;22.20;37.80;;;;;;5116360;28;20460;-72
2022/04/27 12:05:15;;;;;;;7.90;2.17;;;21.70;38.70;;;;;;5115387;28;20808;-72
2022/04/27 12:07:49;;;;;;;3.60;2.40;;;21.60;38.80;;;;;;5116300;28;20467;-73
2022/04/27 12:10:15;;;;;;;3.20;2.00;;;21.50;39.10;;;;;;5115932;28;20473;-73
2022/04/27 12:12:43;;;;;;;2.40;2.03;;;21.70;39.10;;;;;;5116379;28;20479;-73
2022/04/27 12:15:13;;;;;;;2.13;1.87;;;22.60;38.00;;;;;;5116332;28;20456;-73
2022/04/27 12:17:48;;;;;;;14.80;11.63;;;23.70;36.10;;;;;;5116369;28;20457;-73
2022/04/27 12:20:30;;;;;;;2.93;2.20;;;24.50;33.90;;;;;;5116282;28;20804;-72
2022/04/27 12:22:59;;;;;;;2.20;2.00;;;25.10;32.80;;;;;;5116324;28;20536;-73
2022/04/27 12:25:37;;;;;;;4.00;2.13;;;25.60;31.00;;;;;;5115998;28;20506;-72
2022/04/27 12:28:06;;;;;;;2.40;2.20;;;26.00;30.00;;;;;;5116143;28;20941;-73
2022/04/27 12:30:41;;;;;;;2.97;2.63;;;25.90;30.10;;;;;;5115914;28;20967;-73
2022/04/27 12:33:08;;;;;;;1.80;1.70;;;25.30;30.50;;;;;;5115968;28;20440;-73
2022/04/27 12:38:19;;;;;;;2.23;2.03;;;23.60;30.50;;;;;;5115743;28;20897;-73
2022/04/27 12:40:47;;;;;;;2.70;2.10;;;23.20;32.10;;;;;;5115913;28;20448;-73
2022/04/27 12:43:14;;;;;;;5.27;1.87;;;23.50;32.40;;;;;;5115645;28;20453;-72
2022/04/27 12:46:06;;;;;;;2.97;1.90;;;24.00;30.80;;;;;;5115442;28;20559;-72
2022/04/27 12:48:35;;;;;;;3.20;1.90;;;23.70;29.60;;;;;;5115746;28;20543;-72
2022/04/27 12:51:03;;;;;;;2.87;1.93;;;23.10;30.00;;;;;;5115665;28;20503;-73
2022/04/27 12:53:30;;;;;;;3.03;2.20;;;22.40;31.30;;;;;;5115135;28;20513;-73
2022/04/27 12:56:05;;;;;;;5.77;2.00;;;21.80;31.90;;;;;;5115405;28;20794;-73
2022/04/27 12:58:32;;;;;;;3.70;2.37;;;20.90;33.10;;;;;;5115043;28;20455;-73
2022/04/27 13:01:00;;;;;;;2.03;1.77;;;20.40;34.40;;;;;;5115651;28;20452;-75
2022/04/27 13:03:27;;;;;;;2.60;2.40;;;20.30;34.80;;;;;;5116487;28;20460;-73
2022/04/27 13:05:54;;;;;;;2.43;2.00;;;20.40;35.70;;;;;;5116714;28;20554;-72
2022/04/27 13:08:22;;;;;;;3.30;2.17;;;20.80;35.20;;;;;;5116051;28;20459;-75
2022/04/27 13:13:36;;;;;;;3.17;2.57;;;21.70;34.70;;;;;;5116564;28;20815;-75